sensor_id;sensor_type;location;lat;lon;timestamp;P1;durP1;ratioP1;P2;durP2;ratioP2
6475;SDS011;3271;51.910;5.840;2023-07-29T00:01:00;4.75;;;4.32;;
6475;SDS011;3271;51.910;5.840;2023-07-29T00:03:26;4.93;;;4.53;;
6475;SDS011;3271;51.910;5.840;2023-07-29T00:05:54;7.13;;;5.40;;
6475;SDS011;3271;51.910;5.840;2023-07-29T00:08:20;5.97;;;5.38;;
6475;SDS011;3271;51.910;5.840;2023-07-29T00:10:46;5.45;;;4.95;;
6475;SDS011;3271;51.910;5.840;2023-07-29T00:13:12;7.15;;;5.80;;
6475;SDS011;3271;51.910;5.840;2023-07-29T00:15:38;5.05;;;4.57;;
6475;SDS011;3271;51.910;5.840;2023-07-29T00:18:04;7.18;;;4.93;;
6475;SDS011;3271;51.910;5.840;2023-07-29T00:20:30;6.32;;;4.95;;
6475;SDS011;3271;51.910;5.840;2023-07-29T00:22:56;7.43;;;5.65;;
6475;SDS011;3271;51.910;5.840;2023-07-29T00:25:23;6.13;;;5.20;;
6475;SDS011;3271;51.910;5.840;2023-07-29T00:27:49;5.72;;;5.13;;
6475;SDS011;3271;51.910;5.840;2023-07-29T00:30:15;6.80;;;6.20;;
6475;SDS011;3271;51.910;5.840;2023-07-29T00:32:41;5.70;;;5.20;;
6475;SDS011;3271;51.910;5.840;2023-07-29T00:35:07;7.13;;;6.40;;
6475;SDS011;3271;51.910;5.840;2023-07-29T00:37:33;6.63;;;6.03;;
6475;SDS011;3271;51.910;5.840;2023-07-29T00:39:59;5.93;;;5.43;;
6475;SDS011;3271;51.910;5.840;2023-07-29T00:42:25;6.80;;;6.10;;
6475;SDS011;3271;51.910;5.840;2023-07-29T00:44:51;6.47;;;5.43;;
6475;SDS011;3271;51.910;5.840;2023-07-29T00:47:17;7.88;;;5.60;;
6475;SDS011;3271;51.910;5.840;2023-07-29T00:49:43;5.97;;;5.28;;
6475;SDS011;3271;51.910;5.840;2023-07-29T00:52:09;6.05;;;5.45;;
6475;SDS011;3271;51.910;5.840;2023-07-29T00:54:37;6.45;;;5.47;;
6475;SDS011;3271;51.910;5.840;2023-07-29T00:57:03;6.05;;;5.45;;
6475;SDS011;3271;51.910;5.840;2023-07-29T00:59:30;6.60;;;5.60;;
6475;SDS011;3271;51.910;5.840;2023-07-29T01:01:56;7.88;;;5.38;;
6475;SDS011;3271;51.910;5.840;2023-07-29T01:04:22;6.00;;;5.40;;
6475;SDS011;3271;51.910;5.840;2023-07-29T01:07:05;6.20;;;5.60;;
6475;SDS011;3271;51.910;5.840;2023-07-29T01:09:36;6.15;;;5.53;;
6475;SDS011;3271;51.910;5.840;2023-07-29T01:12:12;7.18;;;5.97;;
6475;SDS011;3271;51.910;5.840;2023-07-29T01:14:46;6.38;;;5.78;;
6475;SDS011;3271;51.910;5.840;2023-07-29T01:17:17;7.47;;;5.65;;
6475;SDS011;3271;51.910;5.840;2023-07-29T01:20:00;6.30;;;5.70;;
6475;SDS011;3271;51.910;5.840;2023-07-29T01:22:30;7.05;;;6.28;;
6475;SDS011;3271;51.910;5.840;2023-07-29T01:24:57;6.40;;;5.80;;
6475;SDS011;3271;51.910;5.840;2023-07-29T01:27:24;6.40;;;5.80;;
6475;SDS011;3271;51.910;5.840;2023-07-29T01:29:50;7.53;;;6.78;;
6475;SDS011;3271;51.910;5.840;2023-07-29T01:32:22;7.35;;;6.50;;
6475;SDS011;3271;51.910;5.840;2023-07-29T01:37:22;6.68;;;5.65;;
6475;SDS011;3271;51.910;5.840;2023-07-29T01:39:51;8.60;;;6.53;;
6475;SDS011;3271;51.910;5.840;2023-07-29T01:42:20;6.80;;;6.15;;
6475;SDS011;3271;51.910;5.840;2023-07-29T01:44:46;6.90;;;6.30;;
6475;SDS011;3271;51.910;5.840;2023-07-29T01:47:12;8.48;;;6.45;;
6475;SDS011;3271;51.910;5.840;2023-07-29T01:49:38;7.03;;;6.32;;
6475;SDS011;3271;51.910;5.840;2023-07-29T01:52:04;6.97;;;6.28;;
6475;SDS011;3271;51.910;5.840;2023-07-29T01:54:30;7.30;;;6.60;;
6475;SDS011;3271;51.910;5.840;2023-07-29T01:56:56;7.18;;;6.22;;
6475;SDS011;3271;51.910;5.840;2023-07-29T01:59:22;7.20;;;6.50;;
6475;SDS011;3271;51.910;5.840;2023-07-29T02:01:47;8.10;;;6.85;;
6475;SDS011;3271;51.910;5.840;2023-07-29T02:04:14;8.02;;;7.03;;
6475;SDS011;3271;51.910;5.840;2023-07-29T02:06:40;8.18;;;7.00;;
6475;SDS011;3271;51.910;5.840;2023-07-29T02:09:06;8.48;;;7.25;;
6475;SDS011;3271;51.910;5.840;2023-07-29T02:11:31;9.02;;;8.13;;
6475;SDS011;3271;51.910;5.840;2023-07-29T02:13:57;8.05;;;7.25;;
6475;SDS011;3271;51.910;5.840;2023-07-29T02:16:23;7.70;;;7.00;;
6475;SDS011;3271;51.910;5.840;2023-07-29T02:18:49;8.98;;;8.07;;
6475;SDS011;3271;51.910;5.840;2023-07-29T02:21:15;8.35;;;7.55;;
6475;SDS011;3271;51.910;5.840;2023-07-29T02:23:41;8.68;;;7.88;;
6475;SDS011;3271;51.910;5.840;2023-07-29T02:26:07;8.82;;;7.57;;
6475;SDS011;3271;51.910;5.840;2023-07-29T02:28:33;8.88;;;8.07;;
6475;SDS011;3271;51.910;5.840;2023-07-29T02:33:54;8.60;;;7.75;;
6475;SDS011;3271;51.910;5.840;2023-07-29T02:36:21;10.10;;;9.10;;
6475;SDS011;3271;51.910;5.840;2023-07-29T02:38:47;9.30;;;8.50;;
6475;SDS011;3271;51.910;5.840;2023-07-29T02:41:13;9.50;;;8.60;;
6475;SDS011;3271;51.910;5.840;2023-07-29T02:43:41;8.77;;;7.95;;
6475;SDS011;3271;51.910;5.840;2023-07-29T02:46:07;10.98;;;8.73;;
6475;SDS011;3271;51.910;5.840;2023-07-29T02:48:33;7.93;;;7.20;;
6475;SDS011;3271;51.910;5.840;2023-07-29T02:50:59;6.60;;;5.72;;
6475;SDS011;3271;51.910;5.840;2023-07-29T02:53:25;5.97;;;5.47;;
6475;SDS011;3271;51.910;5.840;2023-07-29T02:55:51;7.25;;;5.40;;
6475;SDS011;3271;51.910;5.840;2023-07-29T02:58:17;7.30;;;5.45;;
6475;SDS011;3271;51.910;5.840;2023-07-29T03:00:43;7.25;;;5.03;;
6475;SDS011;3271;51.910;5.840;2023-07-29T03:03:09;6.25;;;4.90;;
6475;SDS011;3271;51.910;5.840;2023-07-29T03:05:35;4.85;;;4.35;;
6475;SDS011;3271;51.910;5.840;2023-07-29T03:08:02;4.68;;;4.28;;
6475;SDS011;3271;51.910;5.840;2023-07-29T03:10:28;4.85;;;4.10;;
6475;SDS011;3271;51.910;5.840;2023-07-29T03:12:54;4.95;;;3.90;;
6475;SDS011;3271;51.910;5.840;2023-07-29T03:15:24;4.80;;;4.03;;
6475;SDS011;3271;51.910;5.840;2023-07-29T03:17:50;4.72;;;3.42;;
6475;SDS011;3271;51.910;5.840;2023-07-29T03:20:16;4.18;;;3.78;;
6475;SDS011;3271;51.910;5.840;2023-07-29T03:22:45;4.22;;;3.60;;
6475;SDS011;3271;51.910;5.840;2023-07-29T03:25:11;3.90;;;3.53;;
6475;SDS011;3271;51.910;5.840;2023-07-29T03:27:37;3.10;;;2.88;;
6475;SDS011;3271;51.910;5.840;2023-07-29T03:30:04;4.28;;;3.40;;
6475;SDS011;3271;51.910;5.840;2023-07-29T03:32:30;3.45;;;3.03;;
6475;SDS011;3271;51.910;5.840;2023-07-29T03:34:57;4.07;;;3.00;;
6475;SDS011;3271;51.910;5.840;2023-07-29T03:37:23;4.20;;;2.90;;
6475;SDS011;3271;51.910;5.840;2023-07-29T03:39:49;3.63;;;3.00;;
6475;SDS011;3271;51.910;5.840;2023-07-29T03:42:17;3.05;;;2.75;;
6475;SDS011;3271;51.910;5.840;2023-07-29T03:44:43;5.53;;;2.83;;
6475;SDS011;3271;51.910;5.840;2023-07-29T03:47:08;3.88;;;3.00;;
6475;SDS011;3271;51.910;5.840;2023-07-29T03:49:34;3.05;;;2.55;;
6475;SDS011;3271;51.910;5.840;2023-07-29T03:52:00;4.65;;;3.30;;
6475;SDS011;3271;51.910;5.840;2023-07-29T03:54:26;2.80;;;2.53;;
6475;SDS011;3271;51.910;5.840;2023-07-29T03:56:52;2.80;;;2.60;;
6475;SDS011;3271;51.910;5.840;2023-07-29T03:59:18;4.65;;;3.05;;
6475;SDS011;3271;51.910;5.840;2023-07-29T04:01:44;3.33;;;2.70;;
6475;SDS011;3271;51.910;5.840;2023-07-29T04:04:10;3.88;;;2.90;;
6475;SDS011;3271;51.910;5.840;2023-07-29T04:06:36;2.83;;;2.58;;
6475;SDS011;3271;51.910;5.840;2023-07-29T04:09:02;2.97;;;2.40;;
6475;SDS011;3271;51.910;5.840;2023-07-29T04:11:27;4.47;;;2.60;;
6475;SDS011;3271;51.910;5.840;2023-07-29T04:13:53;3.33;;;2.40;;
6475;SDS011;3271;51.910;5.840;2023-07-29T04:16:19;2.65;;;2.35;;
6475;SDS011;3271;51.910;5.840;2023-07-29T04:18:45;2.95;;;2.45;;
6475;SDS011;3271;51.910;5.840;2023-07-29T04:21:11;2.88;;;2.53;;
6475;SDS011;3271;51.910;5.840;2023-07-29T04:23:37;3.70;;;3.30;;
6475;SDS011;3271;51.910;5.840;2023-07-29T04:26:03;2.70;;;2.50;;
6475;SDS011;3271;51.910;5.840;2023-07-29T04:28:29;2.85;;;2.65;;
6475;SDS011;3271;51.910;5.840;2023-07-29T04:30:55;2.60;;;2.40;;
6475;SDS011;3271;51.910;5.840;2023-07-29T04:33:21;3.92;;;2.53;;
6475;SDS011;3271;51.910;5.840;2023-07-29T04:35:47;2.58;;;2.30;;
6475;SDS011;3271;51.910;5.840;2023-07-29T04:38:13;3.28;;;2.35;;
6475;SDS011;3271;51.910;5.840;2023-07-29T04:40:39;2.33;;;2.00;;
6475;SDS011;3271;51.910;5.840;2023-07-29T04:43:05;2.47;;;2.25;;
6475;SDS011;3271;51.910;5.840;2023-07-29T04:45:31;3.45;;;2.38;;
6475;SDS011;3271;51.910;5.840;2023-07-29T04:47:57;2.78;;;2.30;;
6475;SDS011;3271;51.910;5.840;2023-07-29T04:50:24;2.50;;;2.30;;
6475;SDS011;3271;51.910;5.840;2023-07-29T04:52:50;3.35;;;2.20;;
6475;SDS011;3271;51.910;5.840;2023-07-29T04:55:15;3.38;;;1.90;;
6475;SDS011;3271;51.910;5.840;2023-07-29T04:57:41;3.22;;;2.33;;
6475;SDS011;3271;51.910;5.840;2023-07-29T05:00:07;2.33;;;2.13;;
6475;SDS011;3271;51.910;5.840;2023-07-29T05:02:34;3.90;;;2.60;;
6475;SDS011;3271;51.910;5.840;2023-07-29T05:05:01;2.50;;;2.30;;
6475;SDS011;3271;51.910;5.840;2023-07-29T05:07:27;4.22;;;2.42;;
6475;SDS011;3271;51.910;5.840;2023-07-29T05:09:53;2.85;;;2.05;;
6475;SDS011;3271;51.910;5.840;2023-07-29T05:12:18;2.30;;;2.13;;
6475;SDS011;3271;51.910;5.840;2023-07-29T05:14:44;2.45;;;2.20;;
6475;SDS011;3271;51.910;5.840;2023-07-29T05:17:10;3.85;;;2.63;;
6475;SDS011;3271;51.910;5.840;2023-07-29T05:19:36;3.08;;;2.35;;
6475;SDS011;3271;51.910;5.840;2023-07-29T05:22:02;3.50;;;2.70;;
6475;SDS011;3271;51.910;5.840;2023-07-29T05:24:28;3.10;;;2.80;;
6475;SDS011;3271;51.910;5.840;2023-07-29T05:26:54;3.42;;;2.42;;
6475;SDS011;3271;51.910;5.840;2023-07-29T05:29:20;3.70;;;3.38;;
6475;SDS011;3271;51.910;5.840;2023-07-29T05:31:46;3.88;;;2.63;;
6475;SDS011;3271;51.910;5.840;2023-07-29T05:34:12;3.60;;;3.17;;
6475;SDS011;3271;51.910;5.840;2023-07-29T05:36:38;3.08;;;2.78;;
6475;SDS011;3271;51.910;5.840;2023-07-29T05:39:04;3.47;;;3.17;;
6475;SDS011;3271;51.910;5.840;2023-07-29T05:41:30;3.35;;;3.03;;
6475;SDS011;3271;51.910;5.840;2023-07-29T05:43:56;5.13;;;3.83;;
6475;SDS011;3271;51.910;5.840;2023-07-29T05:46:22;4.35;;;3.08;;
6475;SDS011;3271;51.910;5.840;2023-07-29T05:48:48;4.20;;;3.08;;
6475;SDS011;3271;51.910;5.840;2023-07-29T05:51:13;4.07;;;3.33;;
6475;SDS011;3271;51.910;5.840;2023-07-29T05:53:39;3.33;;;3.03;;
6475;SDS011;3271;51.910;5.840;2023-07-29T05:56:05;3.20;;;2.92;;
6475;SDS011;3271;51.910;5.840;2023-07-29T05:58:31;4.22;;;3.83;;
6475;SDS011;3271;51.910;5.840;2023-07-29T06:00:57;4.25;;;3.85;;
6475;SDS011;3271;51.910;5.840;2023-07-29T06:03:23;7.22;;;3.83;;
6475;SDS011;3271;51.910;5.840;2023-07-29T06:05:49;3.67;;;3.35;;
6475;SDS011;3271;51.910;5.840;2023-07-29T06:08:15;7.13;;;3.55;;
6475;SDS011;3271;51.910;5.840;2023-07-29T06:10:41;4.00;;;3.08;;
6475;SDS011;3271;51.910;5.840;2023-07-29T06:13:07;4.97;;;3.75;;
6475;SDS011;3271;51.910;5.840;2023-07-29T06:15:33;4.28;;;3.88;;
6475;SDS011;3271;51.910;5.840;2023-07-29T06:17:59;5.15;;;3.20;;
6475;SDS011;3271;51.910;5.840;2023-07-29T06:20:25;3.88;;;3.53;;
6475;SDS011;3271;51.910;5.840;2023-07-29T06:22:51;4.07;;;3.55;;
6475;SDS011;3271;51.910;5.840;2023-07-29T06:25:17;4.40;;;3.80;;
6475;SDS011;3271;51.910;5.840;2023-07-29T06:27:43;4.22;;;3.72;;
6475;SDS011;3271;51.910;5.840;2023-07-29T06:30:09;4.22;;;3.15;;
6475;SDS011;3271;51.910;5.840;2023-07-29T06:32:35;4.63;;;3.47;;
6475;SDS011;3271;51.910;5.840;2023-07-29T06:35:01;4.18;;;3.40;;
6475;SDS011;3271;51.910;5.840;2023-07-29T06:37:27;5.72;;;3.35;;
6475;SDS011;3271;51.910;5.840;2023-07-29T06:39:53;5.13;;;3.25;;
6475;SDS011;3271;51.910;5.840;2023-07-29T06:42:18;4.25;;;3.53;;
6475;SDS011;3271;51.910;5.840;2023-07-29T06:44:44;6.28;;;4.13;;
6475;SDS011;3271;51.910;5.840;2023-07-29T06:47:13;5.95;;;3.42;;
6475;SDS011;3271;51.910;5.840;2023-07-29T06:49:39;4.95;;;3.60;;
6475;SDS011;3271;51.910;5.840;2023-07-29T06:52:05;3.50;;;3.17;;
6475;SDS011;3271;51.910;5.840;2023-07-29T06:54:31;4.00;;;3.60;;
6475;SDS011;3271;51.910;5.840;2023-07-29T06:56:57;4.72;;;4.00;;
6475;SDS011;3271;51.910;5.840;2023-07-29T06:59:23;4.03;;;3.40;;
6475;SDS011;3271;51.910;5.840;2023-07-29T07:01:50;5.00;;;3.53;;
6475;SDS011;3271;51.910;5.840;2023-07-29T07:04:16;4.10;;;3.75;;
6475;SDS011;3271;51.910;5.840;2023-07-29T07:06:42;3.97;;;3.55;;
6475;SDS011;3271;51.910;5.840;2023-07-29T07:09:08;4.53;;;4.05;;
6475;SDS011;3271;51.910;5.840;2023-07-29T07:11:34;4.35;;;3.85;;
6475;SDS011;3271;51.910;5.840;2023-07-29T07:14:00;4.10;;;3.63;;
6475;SDS011;3271;51.910;5.840;2023-07-29T07:16:26;4.93;;;4.05;;
6475;SDS011;3271;51.910;5.840;2023-07-29T07:18:55;4.53;;;4.13;;
6475;SDS011;3271;51.910;5.840;2023-07-29T07:21:21;5.38;;;4.55;;
6475;SDS011;3271;51.910;5.840;2023-07-29T07:23:48;10.68;;;4.60;;
6475;SDS011;3271;51.910;5.840;2023-07-29T07:26:14;4.32;;;3.92;;
6475;SDS011;3271;51.910;5.840;2023-07-29T07:28:40;5.07;;;4.10;;
6475;SDS011;3271;51.910;5.840;2023-07-29T07:31:06;4.95;;;4.20;;
6475;SDS011;3271;51.910;5.840;2023-07-29T07:33:32;5.32;;;4.85;;
6475;SDS011;3271;51.910;5.840;2023-07-29T07:35:58;5.75;;;4.63;;
6475;SDS011;3271;51.910;5.840;2023-07-29T07:38:24;4.40;;;4.00;;
6475;SDS011;3271;51.910;5.840;2023-07-29T07:40:56;6.10;;;4.10;;
6475;SDS011;3271;51.910;5.840;2023-07-29T07:43:22;4.93;;;4.35;;
6475;SDS011;3271;51.910;5.840;2023-07-29T07:45:49;5.68;;;4.63;;
6475;SDS011;3271;51.910;5.840;2023-07-29T07:48:14;5.55;;;5.05;;
6475;SDS011;3271;51.910;5.840;2023-07-29T07:50:42;5.30;;;4.80;;
6475;SDS011;3271;51.910;5.840;2023-07-29T07:53:07;4.43;;;3.78;;
6475;SDS011;3271;51.910;5.840;2023-07-29T07:55:33;4.68;;;3.72;;
6475;SDS011;3271;51.910;5.840;2023-07-29T07:57:59;4.35;;;4.00;;
6475;SDS011;3271;51.910;5.840;2023-07-29T08:00:25;4.78;;;3.55;;
6475;SDS011;3271;51.910;5.840;2023-07-29T08:02:51;4.28;;;3.88;;
6475;SDS011;3271;51.910;5.840;2023-07-29T08:05:17;6.25;;;3.97;;
6475;SDS011;3271;51.910;5.840;2023-07-29T08:07:44;3.75;;;3.45;;
6475;SDS011;3271;51.910;5.840;2023-07-29T08:10:09;4.18;;;3.80;;
6475;SDS011;3271;51.910;5.840;2023-07-29T08:12:35;3.95;;;2.95;;
6475;SDS011;3271;51.910;5.840;2023-07-29T08:15:01;2.83;;;2.63;;
6475;SDS011;3271;51.910;5.840;2023-07-29T08:17:28;4.28;;;2.72;;
6475;SDS011;3271;51.910;5.840;2023-07-29T08:19:53;3.00;;;2.70;;
6475;SDS011;3271;51.910;5.840;2023-07-29T08:22:19;3.30;;;3.00;;
6475;SDS011;3271;51.910;5.840;2023-07-29T08:24:45;3.10;;;2.80;;
6475;SDS011;3271;51.910;5.840;2023-07-29T08:27:11;3.08;;;2.78;;
6475;SDS011;3271;51.910;5.840;2023-07-29T08:29:38;3.60;;;3.30;;
6475;SDS011;3271;51.910;5.840;2023-07-29T08:32:04;3.05;;;2.67;;
6475;SDS011;3271;51.910;5.840;2023-07-29T08:34:30;2.65;;;2.45;;
6475;SDS011;3271;51.910;5.840;2023-07-29T08:36:56;2.63;;;2.38;;
6475;SDS011;3271;51.910;5.840;2023-07-29T08:39:22;3.15;;;2.95;;
6475;SDS011;3271;51.910;5.840;2023-07-29T08:42:01;4.35;;;3.22;;
6475;SDS011;3271;51.910;5.840;2023-07-29T08:44:34;3.65;;;3.25;;
6475;SDS011;3271;51.910;5.840;2023-07-29T08:47:02;4.10;;;3.17;;
6475;SDS011;3271;51.910;5.840;2023-07-29T08:49:28;3.53;;;3.22;;
6475;SDS011;3271;51.910;5.840;2023-07-29T08:51:55;3.58;;;2.83;;
6475;SDS011;3271;51.910;5.840;2023-07-29T08:54:23;3.33;;;3.03;;
6475;SDS011;3271;51.910;5.840;2023-07-29T08:56:49;4.70;;;3.13;;
6475;SDS011;3271;51.910;5.840;2023-07-29T08:59:15;2.65;;;2.45;;
6475;SDS011;3271;51.910;5.840;2023-07-29T09:01:44;2.60;;;2.40;;
6475;SDS011;3271;51.910;5.840;2023-07-29T09:04:11;2.65;;;1.98;;
6475;SDS011;3271;51.910;5.840;2023-07-29T09:06:37;2.58;;;2.38;;
6475;SDS011;3271;51.910;5.840;2023-07-29T09:09:04;11.77;;;3.72;;
6475;SDS011;3271;51.910;5.840;2023-07-29T09:11:31;4.28;;;2.40;;
6475;SDS011;3271;51.910;5.840;2023-07-29T09:13:58;3.10;;;2.45;;
6475;SDS011;3271;51.910;5.840;2023-07-29T09:16:24;2.08;;;1.80;;
6475;SDS011;3271;51.910;5.840;2023-07-29T09:18:51;2.13;;;1.92;;
6475;SDS011;3271;51.910;5.840;2023-07-29T09:21:23;2.30;;;2.10;;
6475;SDS011;3271;51.910;5.840;2023-07-29T09:23:51;3.05;;;2.10;;
6475;SDS011;3271;51.910;5.840;2023-07-29T09:26:24;2.38;;;2.05;;
6475;SDS011;3271;51.910;5.840;2023-07-29T09:28:54;2.25;;;2.00;;
6475;SDS011;3271;51.910;5.840;2023-07-29T09:31:21;2.85;;;2.10;;
6475;SDS011;3271;51.910;5.840;2023-07-29T09:33:47;2.78;;;2.42;;
6475;SDS011;3271;51.910;5.840;2023-07-29T09:36:13;4.22;;;3.47;;
6475;SDS011;3271;51.910;5.840;2023-07-29T09:38:39;2.63;;;2.40;;
6475;SDS011;3271;51.910;5.840;2023-07-29T09:41:05;3.05;;;2.75;;
6475;SDS011;3271;51.910;5.840;2023-07-29T09:43:32;2.53;;;2.33;;
6475;SDS011;3271;51.910;5.840;2023-07-29T09:46:02;3.45;;;2.35;;
6475;SDS011;3271;51.910;5.840;2023-07-29T09:48:32;3.97;;;2.55;;
6475;SDS011;3271;51.910;5.840;2023-07-29T09:50:58;3.40;;;2.63;;
6475;SDS011;3271;51.910;5.840;2023-07-29T09:53:24;3.72;;;2.65;;
6475;SDS011;3271;51.910;5.840;2023-07-29T09:55:50;3.20;;;2.92;;
6475;SDS011;3271;51.910;5.840;2023-07-29T09:58:27;3.33;;;2.50;;
6475;SDS011;3271;51.910;5.840;2023-07-29T10:00:53;2.58;;;2.38;;
6475;SDS011;3271;51.910;5.840;2023-07-29T10:03:20;2.53;;;2.33;;
6475;SDS011;3271;51.910;5.840;2023-07-29T10:05:46;4.45;;;2.80;;
6475;SDS011;3271;51.910;5.840;2023-07-29T10:08:12;2.60;;;2.35;;
6475;SDS011;3271;51.910;5.840;2023-07-29T10:10:41;2.55;;;2.35;;
6475;SDS011;3271;51.910;5.840;2023-07-29T10:13:07;2.40;;;2.20;;
6475;SDS011;3271;51.910;5.840;2023-07-29T10:15:34;4.68;;;2.58;;
6475;SDS011;3271;51.910;5.840;2023-07-29T10:18:01;3.97;;;2.63;;
6475;SDS011;3271;51.910;5.840;2023-07-29T10:20:28;6.30;;;3.65;;
6475;SDS011;3271;51.910;5.840;2023-07-29T10:22:54;5.00;;;4.05;;
6475;SDS011;3271;51.910;5.840;2023-07-29T10:25:22;5.40;;;4.40;;
6475;SDS011;3271;51.910;5.840;2023-07-29T10:28:07;4.50;;;4.10;;
6475;SDS011;3271;51.910;5.840;2023-07-29T10:30:33;6.18;;;5.40;;
6475;SDS011;3271;51.910;5.840;2023-07-29T10:33:01;5.63;;;5.15;;
6475;SDS011;3271;51.910;5.840;2023-07-29T10:35:27;5.22;;;4.78;;
6475;SDS011;3271;51.910;5.840;2023-07-29T10:37:54;5.65;;;5.20;;
6475;SDS011;3271;51.910;5.840;2023-07-29T10:40:20;4.72;;;4.30;;
6475;SDS011;3271;51.910;5.840;2023-07-29T10:43:03;6.55;;;4.03;;
6475;SDS011;3271;51.910;5.840;2023-07-29T10:45:41;5.45;;;4.07;;
6475;SDS011;3271;51.910;5.840;2023-07-29T10:48:11;3.22;;;2.85;;
6475;SDS011;3271;51.910;5.840;2023-07-29T10:50:37;3.22;;;2.60;;
6475;SDS011;3271;51.910;5.840;2023-07-29T10:53:03;3.38;;;3.10;;
6475;SDS011;3271;51.910;5.840;2023-07-29T10:55:32;2.90;;;2.70;;
6475;SDS011;3271;51.910;5.840;2023-07-29T10:58:04;2.80;;;2.60;;
6475;SDS011;3271;51.910;5.840;2023-07-29T11:00:31;2.90;;;2.70;;
6475;SDS011;3271;51.910;5.840;2023-07-29T11:03:01;3.28;;;2.97;;
6475;SDS011;3271;51.910;5.840;2023-07-29T11:05:41;3.58;;;3.28;;
6475;SDS011;3271;51.910;5.840;2023-07-29T11:08:17;5.10;;;4.47;;
6475;SDS011;3271;51.910;5.840;2023-07-29T11:10:44;2.70;;;2.50;;
6475;SDS011;3271;51.910;5.840;2023-07-29T11:13:10;3.08;;;2.70;;
6475;SDS011;3271;51.910;5.840;2023-07-29T11:15:37;2.13;;;1.95;;
6475;SDS011;3271;51.910;5.840;2023-07-29T11:18:04;3.05;;;2.75;;
6475;SDS011;3271;51.910;5.840;2023-07-29T11:20:33;4.00;;;2.45;;
6475;SDS011;3271;51.910;5.840;2023-07-29T11:23:00;2.42;;;2.20;;
6475;SDS011;3271;51.910;5.840;2023-07-29T11:25:28;2.38;;;2.13;;
6475;SDS011;3271;51.910;5.840;2023-07-29T11:27:55;2.20;;;2.00;;
6475;SDS011;3271;51.910;5.840;2023-07-29T11:30:22;1.83;;;1.63;;
6475;SDS011;3271;51.910;5.840;2023-07-29T11:32:55;2.05;;;1.85;;
6475;SDS011;3271;51.910;5.840;2023-07-29T11:35:21;2.28;;;2.05;;
6475;SDS011;3271;51.910;5.840;2023-07-29T11:37:48;2.63;;;2.08;;
6475;SDS011;3271;51.910;5.840;2023-07-29T11:40:15;2.45;;;2.20;;
6475;SDS011;3271;51.910;5.840;2023-07-29T11:42:42;2.53;;;2.10;;
6475;SDS011;3271;51.910;5.840;2023-07-29T11:45:08;2.58;;;2.22;;
6475;SDS011;3271;51.910;5.840;2023-07-29T11:47:35;3.35;;;2.60;;
6475;SDS011;3271;51.910;5.840;2023-07-29T11:50:02;8.50;;;3.78;;
6475;SDS011;3271;51.910;5.840;2023-07-29T11:52:28;3.00;;;2.70;;
6475;SDS011;3271;51.910;5.840;2023-07-29T11:54:54;5.57;;;2.35;;
6475;SDS011;3271;51.910;5.840;2023-07-29T11:57:20;5.53;;;2.97;;
6475;SDS011;3271;51.910;5.840;2023-07-29T11:59:46;2.60;;;2.15;;
6475;SDS011;3271;51.910;5.840;2023-07-29T12:02:13;3.30;;;3.00;;
6475;SDS011;3271;51.910;5.840;2023-07-29T12:04:40;3.15;;;1.33;;
6475;SDS011;3271;51.910;5.840;2023-07-29T12:07:07;4.78;;;4.28;;
6475;SDS011;3271;51.910;5.840;2023-07-29T12:09:33;3.67;;;2.58;;
6475;SDS011;3271;51.910;5.840;2023-07-29T12:12:00;3.55;;;1.30;;
6475;SDS011;3271;51.910;5.840;2023-07-29T12:14:26;1.80;;;1.70;;
6475;SDS011;3271;51.910;5.840;2023-07-29T12:16:52;2.45;;;1.10;;
6475;SDS011;3271;51.910;5.840;2023-07-29T12:19:18;2.42;;;1.20;;
6475;SDS011;3271;51.910;5.840;2023-07-29T12:21:46;1.20;;;1.10;;
6475;SDS011;3271;51.910;5.840;2023-07-29T12:24:12;1.67;;;1.10;;
6475;SDS011;3271;51.910;5.840;2023-07-29T12:26:39;2.75;;;1.50;;
6475;SDS011;3271;51.910;5.840;2023-07-29T12:29:12;1.23;;;1.08;;
6475;SDS011;3271;51.910;5.840;2023-07-29T12:31:38;2.20;;;1.60;;
6475;SDS011;3271;51.910;5.840;2023-07-29T12:34:04;1.52;;;1.40;;
6475;SDS011;3271;51.910;5.840;2023-07-29T12:36:40;1.48;;;1.38;;
6475;SDS011;3271;51.910;5.840;2023-07-29T12:39:15;2.75;;;1.20;;
6475;SDS011;3271;51.910;5.840;2023-07-29T12:41:41;2.33;;;1.48;;
6475;SDS011;3271;51.910;5.840;2023-07-29T12:44:07;4.50;;;2.00;;
6475;SDS011;3271;51.910;5.840;2023-07-29T12:46:33;3.90;;;1.40;;
6475;SDS011;3271;51.910;5.840;2023-07-29T12:48:59;1.98;;;1.65;;
6475;SDS011;3271;51.910;5.840;2023-07-29T12:51:25;2.45;;;1.50;;
6475;SDS011;3271;51.910;5.840;2023-07-29T12:53:51;2.33;;;1.52;;
6475;SDS011;3271;51.910;5.840;2023-07-29T12:56:16;1.70;;;1.52;;
6475;SDS011;3271;51.910;5.840;2023-07-29T12:58:42;2.25;;;1.50;;
6475;SDS011;3271;51.910;5.840;2023-07-29T13:01:08;2.72;;;1.90;;
6475;SDS011;3271;51.910;5.840;2023-07-29T13:03:37;2.05;;;1.92;;
6475;SDS011;3271;51.910;5.840;2023-07-29T13:06:03;2.67;;;2.20;;
6475;SDS011;3271;51.910;5.840;2023-07-29T13:08:30;2.90;;;2.70;;
6475;SDS011;3271;51.910;5.840;2023-07-29T13:10:55;2.83;;;2.58;;
6475;SDS011;3271;51.910;5.840;2023-07-29T13:13:21;2.83;;;2.53;;
6475;SDS011;3271;51.910;5.840;2023-07-29T13:15:47;3.42;;;2.90;;
6475;SDS011;3271;51.910;5.840;2023-07-29T13:18:13;3.33;;;3.08;;
6475;SDS011;3271;51.910;5.840;2023-07-29T13:20:39;3.55;;;2.75;;
6475;SDS011;3271;51.910;5.840;2023-07-29T13:23:05;3.58;;;3.00;;
6475;SDS011;3271;51.910;5.840;2023-07-29T13:25:31;3.97;;;3.58;;
6475;SDS011;3271;51.910;5.840;2023-07-29T13:27:57;5.60;;;4.00;;
6475;SDS011;3271;51.910;5.840;2023-07-29T13:30:23;6.88;;;6.22;;
6475;SDS011;3271;51.910;5.840;2023-07-29T13:32:49;3.67;;;2.90;;
6475;SDS011;3271;51.910;5.840;2023-07-29T13:35:15;4.60;;;3.75;;
6475;SDS011;3271;51.910;5.840;2023-07-29T13:37:40;4.30;;;3.58;;
6475;SDS011;3271;51.910;5.840;2023-07-29T13:40:07;19.50;;;17.42;;
6475;SDS011;3271;51.910;5.840;2023-07-29T13:42:33;4.30;;;3.90;;
6475;SDS011;3271;51.910;5.840;2023-07-29T13:44:59;4.50;;;4.10;;
6475;SDS011;3271;51.910;5.840;2023-07-29T13:47:24;3.55;;;3.25;;
6475;SDS011;3271;51.910;5.840;2023-07-29T13:49:50;4.30;;;3.20;;
6475;SDS011;3271;51.910;5.840;2023-07-29T13:52:16;3.65;;;3.35;;
6475;SDS011;3271;51.910;5.840;2023-07-29T13:54:42;3.58;;;3.28;;
6475;SDS011;3271;51.910;5.840;2023-07-29T13:57:08;3.08;;;2.78;;
6475;SDS011;3271;51.910;5.840;2023-07-29T13:59:35;3.17;;;2.60;;
6475;SDS011;3271;51.910;5.840;2023-07-29T14:02:03;3.10;;;2.80;;
6475;SDS011;3271;51.910;5.840;2023-07-29T14:04:29;3.55;;;2.60;;
6475;SDS011;3271;51.910;5.840;2023-07-29T14:06:55;2.95;;;2.60;;
6475;SDS011;3271;51.910;5.840;2023-07-29T14:09:21;2.70;;;2.50;;
6475;SDS011;3271;51.910;5.840;2023-07-29T14:11:47;2.58;;;2.38;;
6475;SDS011;3271;51.910;5.840;2023-07-29T14:14:13;2.30;;;2.10;;
6475;SDS011;3271;51.910;5.840;2023-07-29T14:16:38;2.30;;;2.20;;
6475;SDS011;3271;51.910;5.840;2023-07-29T14:19:04;2.35;;;2.15;;
6475;SDS011;3271;51.910;5.840;2023-07-29T14:21:30;2.53;;;2.33;;
6475;SDS011;3271;51.910;5.840;2023-07-29T14:23:56;2.45;;;2.25;;
6475;SDS011;3271;51.910;5.840;2023-07-29T14:26:22;2.95;;;2.35;;
6475;SDS011;3271;51.910;5.840;2023-07-29T14:28:48;2.70;;;2.50;;
6475;SDS011;3271;51.910;5.840;2023-07-29T14:31:15;2.90;;;2.70;;
6475;SDS011;3271;51.910;5.840;2023-07-29T14:33:42;2.92;;;2.72;;
6475;SDS011;3271;51.910;5.840;2023-07-29T14:36:08;3.10;;;2.90;;
6475;SDS011;3271;51.910;5.840;2023-07-29T14:38:34;3.30;;;3.00;;
6475;SDS011;3271;51.910;5.840;2023-07-29T14:41:00;2.90;;;2.70;;
6475;SDS011;3271;51.910;5.840;2023-07-29T14:43:26;3.20;;;2.50;;
6475;SDS011;3271;51.910;5.840;2023-07-29T14:45:52;2.90;;;2.70;;
6475;SDS011;3271;51.910;5.840;2023-07-29T14:48:18;2.30;;;2.10;;
6475;SDS011;3271;51.910;5.840;2023-07-29T14:50:44;3.10;;;2.80;;
6475;SDS011;3271;51.910;5.840;2023-07-29T14:53:10;2.15;;;2.05;;
6475;SDS011;3271;51.910;5.840;2023-07-29T14:55:36;2.97;;;2.40;;
6475;SDS011;3271;51.910;5.840;2023-07-29T14:58:02;2.72;;;2.38;;
6475;SDS011;3271;51.910;5.840;2023-07-29T15:00:28;2.50;;;2.30;;
6475;SDS011;3271;51.910;5.840;2023-07-29T15:02:54;3.15;;;2.30;;
6475;SDS011;3271;51.910;5.840;2023-07-29T15:05:20;2.55;;;2.00;;
6475;SDS011;3271;51.910;5.840;2023-07-29T15:07:46;3.00;;;2.40;;
6475;SDS011;3271;51.910;5.840;2023-07-29T15:10:15;2.53;;;2.30;;
6475;SDS011;3271;51.910;5.840;2023-07-29T15:12:42;2.20;;;2.00;;
6475;SDS011;3271;51.910;5.840;2023-07-29T15:15:08;2.13;;;2.03;;
6475;SDS011;3271;51.910;5.840;2023-07-29T15:17:34;2.45;;;2.25;;